Time;durP1;ratioP1;P1;durP2;ratioP2;P2;SDS_P1;SDS_P2;PMS_P1;PMS_P2;Temp;Humidity;BMP_temperature;BMP_pressure;BME280_temperature;BME280_humidity;BME280_pressure;Samples;Min_cycle;Max_cycle;Signal;HPM_P1;HPM_P2
2022/06/27 00:01:51;;;;;;;6.20;5.70;;;;;;;20.09;100.00;100946.41;1686460;83;21097;-90
2022/06/27 00:04:19;;;;;;;6.65;5.22;;;;;;;20.09;100.00;100951.70;1686302;85;21061;-90
2022/06/27 00:06:46;;;;;;;5.40;4.90;;;;;;;20.10;100.00;100951.22;1686505;83;21133;-91
2022/06/27 00:09:14;;;;;;;9.13;5.92;;;;;;;20.09;100.00;100950.38;1686235;83;21057;-90
2022/06/27 00:11:42;;;;;;;6.33;5.65;;;;;;;20.10;100.00;100955.99;1686267;85;21073;-91
2022/06/27 00:14:11;;;;;;;8.03;5.92;;;;;;;20.10;100.00;100955.19;1686186;83;21548;-91
2022/06/27 00:16:38;;;;;;;6.35;5.65;;;;;;;20.09;100.00;100953.02;1686746;85;21065;-91
2022/06/27 00:19:05;;;;;;;6.72;5.83;;;;;;;20.08;100.00;100951.37;1686386;83;21156;-91
2022/06/27 00:21:34;;;;;;;7.67;5.30;;;;;;;20.07;100.00;100955.00;1686365;85;21031;-91
2022/06/27 00:24:01;;;;;;;6.80;5.58;;;;;;;20.06;100.00;100956.50;1686330;85;21089;-91
2022/06/27 00:26:28;;;;;;;6.50;5.08;;;;;;;20.05;100.00;100955.69;1686492;83;21555;-92
2022/06/27 00:28:56;;;;;;;7.83;4.80;;;;;;;20.04;100.00;100952.71;1686512;84;21034;-91
2022/06/27 00:31:23;;;;;;;5.90;5.40;;;;;;;20.04;100.00;100959.32;1686507;84;21095;-92
2022/06/27 00:33:50;;;;;;;7.12;5.17;;;;;;;20.03;100.00;100960.82;1686538;83;21468;-92
2022/06/27 00:36:17;;;;;;;8.30;4.47;;;;;;;20.02;100.00;100961.30;1686608;83;20990;-91
2022/06/27 00:38:44;;;;;;;5.28;4.87;;;;;;;20.01;100.00;100964.94;1686263;85;21006;-91
2022/06/27 00:41:11;;;;;;;5.47;5.08;;;;;;;19.98;100.00;100963.97;1686374;83;21037;-91
2022/06/27 00:43:44;;;;;;;8.53;5.25;;;;;;;19.98;100.00;100964.78;1686365;85;21859;-91
2022/06/27 00:46:12;;;;;;;5.42;5.03;;;;;;;19.96;100.00;100970.72;1702733;83;21561;-91
2022/06/27 00:48:39;;;;;;;6.08;5.30;;;;;;;19.92;100.00;100966.78;1719596;82;21028;-91
2022/06/27 00:51:06;;;;;;;7.78;5.05;;;;;;;19.91;100.00;100963.00;1719624;82;21005;-92
2022/06/27 00:53:34;;;;;;;5.83;5.35;;;;;;;19.89;100.00;100969.75;1719376;82;20969;-92
2022/06/27 00:56:02;;;;;;;6.60;5.45;;;;;;;19.86;100.00;100972.23;1719865;82;21815;-92
2022/06/27 00:58:29;;;;;;;5.25;4.85;;;;;;;19.82;100.00;100966.94;1719397;82;21052;-92
2022/06/27 01:00:57;;;;;;;6.87;5.45;;;;;;;19.77;100.00;100967.92;1719757;82;21535;-91
2022/06/27 01:03:25;;;;;;;5.50;5.10;;;;;;;19.73;100.00;100968.42;1719271;82;21002;-91
2022/06/27 01:05:52;;;;;;;5.47;4.95;;;;;;;19.68;100.00;100970.24;1719450;83;21061;-91
2022/06/27 01:08:28;;;;;;;5.65;5.15;;;;;;;19.64;100.00;100965.79;1719419;82;21053;-92
2022/06/27 01:10:54;;;;;;;5.60;5.12;;;;;;;19.58;100.00;100961.18;1718284;82;21598;-92
2022/06/27 01:13:23;;;;;;;5.62;5.22;;;;;;;19.52;100.00;100967.94;1719294;82;21001;-91
2022/06/27 01:15:51;;;;;;;5.67;5.17;;;;;;;19.46;100.00;100960.69;1719291;82;21056;-91
2022/06/27 01:18:18;;;;;;;5.17;4.78;;;;;;;19.40;100.00;100960.04;1719256;82;20965;-91
2022/06/27 01:20:47;;;;;;;6.65;5.60;;;;;;;19.38;100.00;100968.13;1688497;83;40047;-92
2022/06/27 01:23:15;;;;;;;6.62;5.17;;;;;;;19.36;100.00;100968.78;1719284;83;20946;-92
2022/06/27 01:25:42;;;;;;;5.70;5.25;;;;;;;19.33;100.00;100963.83;1719342;83;21542;-91
2022/06/27 01:28:11;;;;;;;5.50;4.80;;;;;;;19.33;100.00;100970.93;1719733;83;21534;-91
2022/06/27 01:30:38;;;;;;;5.72;5.03;;;;;;;19.35;100.00;100972.89;1724271;83;21002;-91
2022/06/27 01:33:06;;;;;;;6.60;5.20;;;;;;;19.35;100.00;100975.53;1725258;83;21234;-92
2022/06/27 01:35:35;;;;;;;7.35;5.70;;;;;;;19.35;100.00;100973.73;1720249;83;20994;-92
2022/06/27 01:38:04;;;;;;;5.87;5.28;;;;;;;19.36;100.00;100982.47;1725330;83;21094;-92
2022/06/27 01:40:32;;;;;;;7.67;5.50;;;;;;;19.34;100.00;100983.14;1725232;83;21053;-92
2022/06/27 01:43:01;;;;;;;5.55;5.05;;;;;;;19.34;100.00;100985.78;1725514;83;21568;-91
2022/06/27 01:45:29;;;;;;;9.55;5.33;;;;;;;19.33;100.00;100990.73;1723899;83;21143;-92
2022/06/27 01:47:57;;;;;;;6.83;5.87;;;;;;;19.28;100.00;100981.98;1706599;84;21035;-91
2022/06/27 01:50:26;;;;;;;8.78;5.70;;;;;;;19.23;100.00;100981.15;1687654;83;21146;-91
2022/06/27 01:52:56;;;;;;;6.20;5.58;;;;;;;19.19;100.00;100983.77;1681495;85;21023;-92
2022/06/27 01:55:24;;;;;;;8.98;5.80;;;;;;;19.15;100.00;100985.61;1681320;85;21029;-91
2022/06/27 01:57:52;;;;;;;5.87;5.37;;;;;;;19.11;100.00;100989.03;1681217;84;21241;-91
2022/06/27 02:00:19;;;;;;;5.87;5.37;;;;;;;19.07;100.00;100990.36;1681302;85;21596;-91
2022/06/27 02:02:59;;;;;;;5.92;5.42;;;;;;;19.03;100.00;100991.18;1681223;85;21105;-91
2022/06/27 02:05:28;;;;;;;6.15;5.35;;;;;;;19.00;100.00;100995.95;1681594;85;21019;-91
2022/06/27 02:07:57;;;;;;;6.65;5.42;;;;;;;19.00;100.00;100992.00;1681839;84;21148;-92
2022/06/27 02:10:24;;;;;;;6.50;5.50;;;;;;;18.99;100.00;100994.30;1681651;84;21110;-92
2022/06/27 02:12:53;;;;;;;6.37;5.28;;;;;;;18.96;100.00;100990.66;1681300;85;21015;-92
2022/06/27 02:15:23;;;;;;;6.08;5.58;;;;;;;18.94;100.00;100990.83;1681457;85;21035;-92
2022/06/27 02:17:51;;;;;;;6.45;5.80;;;;;;;18.94;100.00;100995.29;1681337;85;21034;-92
2022/06/27 02:20:18;;;;;;;8.08;5.55;;;;;;;18.94;100.00;100998.73;1681365;85;21421;-91
2022/06/27 02:22:46;;;;;;;6.47;5.95;;;;;;;18.96;100.00;101000.73;1681422;84;21163;-91
2022/06/27 02:25:13;;;;;;;6.05;5.45;;;;;;;18.96;100.00;100999.89;1681508;85;21449;-91
2022/06/27 02:27:42;;;;;;;6.90;5.83;;;;;;;18.96;100.00;100994.61;1681480;85;21063;-91
2022/06/27 02:30:10;;;;;;;6.03;5.45;;;;;;;18.96;100.00;100992.81;1681151;85;21110;-91
2022/06/27 02:32:39;;;;;;;7.03;5.70;;;;;;;18.95;100.00;100994.31;1681459;84;21071;-91
2022/06/27 02:35:08;;;;;;;9.03;5.92;;;;;;;18.94;100.00;100995.29;1681245;85;21111;-91
2022/06/27 02:37:36;;;;;;;6.60;6.10;;;;;;;18.93;100.00;100993.64;1681523;85;21514;-90
2022/06/27 02:40:04;;;;;;;6.47;5.97;;;;;;;18.94;100.00;100999.25;1681476;85;21050;-91
2022/06/27 02:42:34;;;;;;;5.90;5.40;;;;;;;18.95;100.00;100992.48;1681292;85;21604;-91
2022/06/27 02:45:02;;;;;;;7.97;5.65;;;;;;;18.99;100.00;100994.30;1681275;85;21078;-91
2022/06/27 02:47:33;;;;;;;5.90;5.40;;;;;;;19.01;100.00;100998.42;1692899;84;21596;-92
2022/06/27 02:50:01;;;;;;;6.95;5.83;;;;;;;19.04;100.00;100999.91;1696824;84;21070;-92
2022/06/27 02:52:36;;;;;;;6.28;5.60;;;;;;;19.09;100.00;100998.95;1696709;84;21089;-91
2022/06/27 02:55:15;;;;;;;7.47;5.83;;;;;;;19.14;100.00;101001.92;1695928;84;22228;-91
2022/06/27 02:58:19;;;;;;;8.35;6.03;;;;;;;19.22;100.00;101004.57;1696986;84;21054;-92
2022/06/27 03:00:49;;;;;;;7.62;6.05;;;;;;;19.31;100.00;101004.58;1694588;84;21219;-92
2022/06/27 03:03:17;;;;;;;8.73;6.08;;;;;;;19.39;100.00;101006.72;1697063;84;20966;-92
2022/06/27 03:06:02;;;;;;;7.90;5.70;;;;;;;19.48;100.00;101002.29;1692244;84;21057;-92
2022/06/27 03:08:40;;;;;;;12.00;6.53;;;;;;;19.55;100.00;100999.31;1696832;84;21057;-93
2022/06/27 03:11:16;;;;;;;7.47;6.28;;;;;;;19.65;100.00;101005.74;1696877;84;21387;-92
2022/06/27 03:13:45;;;;;;;7.30;5.70;;;;;;;19.73;100.00;100998.80;1696107;84;21199;-91
2022/06/27 03:16:16;;;;;;;6.65;5.70;;;;;;;19.80;100.00;101000.63;1697029;84;20991;-91
2022/06/27 03:18:43;;;;;;;6.30;5.62;;;;;;;19.88;100.00;100994.52;1696867;84;21034;-92
2022/06/27 03:21:11;;;;;;;6.87;6.12;;;;;;;19.97;100.00;101003.28;1697069;84;21086;-92
2022/06/27 03:23:40;;;;;;;8.68;6.05;;;;;;;20.06;100.00;101005.39;1697006;84;21456;-92
2022/06/27 03:26:08;;;;;;;7.55;6.10;;;;;;;20.12;100.00;100998.95;1696989;84;21227;-92
2022/06/27 03:28:35;;;;;;;7.55;5.97;;;;;;;20.21;100.00;101002.89;1696956;84;21014;-92
2022/06/27 03:31:03;;;;;;;9.20;5.83;;;;;;;20.27;100.00;101001.70;1697030;84;21018;-91
2022/06/27 03:33:33;;;;;;;7.58;5.70;;;;;;;20.36;100.00;101003.00;1692128;84;21058;-91
2022/06/27 03:36:05;;;;;;;6.35;5.72;;;;;;;20.42;100.00;101001.02;1692314;84;21053;-93
2022/06/27 03:38:33;;;;;;;6.62;5.37;;;;;;;20.50;100.00;100995.70;1665170;84;21987;-92
2022/06/27 03:41:02;;;;;;;9.38;6.00;;;;;;;20.57;100.00;101001.95;1696914;84;21098;-92
2022/06/27 03:43:30;;;;;;;8.90;6.08;;;;;;;20.65;100.00;101003.71;1696901;84;21058;-92
2022/06/27 03:45:57;;;;;;;6.78;6.05;;;;;;;20.71;100.00;101008.30;1697037;84;21030;-91
2022/06/27 03:51:15;;;;;;;6.60;5.65;;;;;;;20.86;100.00;101002.34;1680291;84;21279;-92
2022/06/27 03:53:42;;;;;;;6.47;5.87;;;;;;;20.94;100.00;101003.61;1696922;84;21042;-93
2022/06/27 03:56:09;;;;;;;6.87;5.87;;;;;;;21.03;100.00;100998.56;1696918;84;21121;-92
2022/06/27 03:58:36;;;;;;;9.35;5.65;;;;;;;21.11;100.00;101003.81;1696962;84;21022;-92
2022/06/27 04:01:04;;;;;;;7.70;6.03;;;;;;;21.20;100.00;100999.78;1697418;84;21589;-91
2022/06/27 04:03:32;;;;;;;6.50;5.85;;;;;;;21.26;100.00;100997.78;1696812;84;21170;-92
2022/06/27 04:06:01;;;;;;;8.43;5.87;;;;;;;21.34;100.00;100992.42;1692008;84;21038;-92
2022/06/27 04:08:29;;;;;;;6.20;5.65;;;;;;;21.43;100.00;100996.63;1697182;84;21058;-92
2022/06/27 04:10:57;;;;;;;6.03;5.40;;;;;;;21.51;100.00;100996.27;1697227;84;21073;-93
2022/06/27 04:13:26;;;;;;;6.55;5.90;;;;;;;21.59;100.00;100989.61;1692434;84;21018;-92
2022/06/27 04:16:05;;;;;;;7.80;5.85;;;;;;;21.69;100.00;100988.83;1692016;84;21148;-92
2022/06/27 04:18:34;;;;;;;6.37;5.78;;;;;;;21.78;100.00;100990.08;1677505;84;21018;-93
2022/06/27 04:21:19;;;;;;;8.30;6.00;;;;;;;21.86;100.00;100987.35;1697022;84;21574;-93
2022/06/27 04:23:51;;;;;;;6.42;5.75;;;;;;;21.96;100.00;100993.70;1658261;84;21014;-92
2022/06/27 04:26:20;;;;;;;6.25;5.30;;;;;;;22.05;100.00;100997.44;1691106;84;21531;-91
2022/06/27 04:28:48;;;;;;;7.22;5.85;;;;;;;22.15;100.00;100992.38;1697111;84;21161;-93
2022/06/27 04:31:15;;;;;;;6.05;5.45;;;;;;;22.24;100.00;100995.22;1697038;84;21129;-93
2022/06/27 04:33:44;;;;;;;7.67;5.95;;;;;;;22.35;100.00;100999.27;1719159;82;21057;-92
2022/06/27 04:36:12;;;;;;;6.83;5.50;;;;;;;22.45;100.00;100994.52;1723234;83;21020;-94
2022/06/27 04:38:39;;;;;;;5.50;5.00;;;;;;;22.57;100.00;100985.58;1724291;82;21621;-93
2022/06/27 04:41:16;;;;;;;7.83;5.50;;;;;;;22.69;100.00;100987.24;1675305;82;21021;-93
2022/06/27 04:43:46;;;;;;;6.50;5.58;;;;;;;22.77;100.00;100985.81;1715746;82;21430;-93
2022/06/27 04:46:15;;;;;;;11.43;5.20;;;;;;;22.83;100.00;100986.37;1730833;81;21507;-93
2022/06/27 04:48:45;;;;;;;7.90;5.58;;;;;;;22.90;100.00;100990.44;1667156;84;21615;-93
2022/06/27 04:51:14;;;;;;;8.25;5.37;;;;;;;22.97;100.00;100990.52;1686109;85;21078;-94
2022/06/27 04:53:44;;;;;;;6.78;5.40;;;;;;;23.03;100.00;100986.30;1678485;83;21917;-94
2022/06/27 04:56:11;;;;;;;7.22;5.22;;;;;;;23.10;100.00;100986.66;1706300;83;21025;-92
2022/06/27 04:58:39;;;;;;;7.55;5.92;;;;;;;23.21;100.00;100996.50;1711626;83;21064;-93
2022/06/27 05:01:06;;;;;;;5.58;5.00;;;;;;;23.33;100.00;100993.64;1711944;83;21551;-94
2022/06/27 05:03:40;;;;;;;6.05;5.22;;;;;;;23.42;100.00;100997.81;1702420;83;21049;-95
2022/06/27 05:06:09;;;;;;;6.67;5.33;;;;;;;23.54;100.00;100986.16;1708158;83;21274;-94
2022/06/27 05:08:37;;;;;;;6.40;5.47;;;;;;;23.63;100.00;100990.32;1711605;83;21571;-94
2022/06/27 05:11:05;;;;;;;7.53;5.83;;;;;;;23.75;100.00;100989.28;1707472;83;21019;-93
2022/06/27 05:13:32;;;;;;;7.72;4.80;;;;;;;23.89;100.00;100986.70;1725505;82;21076;-94
2022/06/27 05:16:03;;;;;;;7.35;5.25;;;;;;;24.01;100.00;100993.66;1720683;82;21518;-94
2022/06/27 05:18:31;;;;;;;6.70;5.35;;;;;;;24.10;100.00;100995.99;1726673;82;21160;-93
2022/06/27 05:20:58;;;;;;;5.90;5.35;;;;;;;24.20;100.00;100999.61;1727573;82;21075;-93
2022/06/27 05:23:25;;;;;;;5.75;5.20;;;;;;;24.30;100.00;100995.78;1720658;82;20996;-94
2022/06/27 05:25:52;;;;;;;6.33;4.97;;;;;;;24.38;100.00;100992.95;1729544;82;21020;-95
2022/06/27 05:28:21;;;;;;;5.62;5.00;;;;;;;24.46;100.00;100995.45;1724211;82;21021;-94
2022/06/27 05:30:48;;;;;;;5.33;4.83;;;;;;;24.52;100.00;100992.48;1726505;82;21151;-95
2022/06/27 05:33:16;;;;;;;6.97;5.45;;;;;;;24.57;100.00;100986.88;1728189;82;21020;-92
2022/06/27 05:35:45;;;;;;;8.03;5.58;;;;;;;24.64;100.00;100996.72;1732841;82;21091;-93
2022/06/27 05:38:12;;;;;;;7.47;5.03;;;;;;;24.72;100.00;101001.89;1732366;82;21123;-94
2022/06/27 05:40:40;;;;;;;6.17;5.30;;;;;;;24.78;100.00;100995.80;1732535;82;21055;-96
2022/06/27 05:43:07;;;;;;;9.85;5.67;;;;;;;24.84;100.00;100996.31;1732355;82;21802;-95
2022/06/27 05:45:35;;;;;;;7.85;4.90;;;;;;;24.94;100.00;100991.12;1732681;82;21004;-93
2022/06/27 05:48:21;;;;;;;8.10;6.10;;;;;;;25.00;100.00;100990.30;1743621;81;21077;-96
2022/06/27 05:51:02;;;;;;;6.42;5.12;;;;;;;25.05;100.00;100994.50;1747415;80;20970;-96
2022/06/27 05:53:30;;;;;;;10.03;5.72;;;;;;;25.10;100.00;100986.74;1750860;82;21595;-95
2022/06/27 05:55:57;;;;;;;6.15;5.45;;;;;;;25.13;100.00;100991.64;1750247;82;21138;-94
2022/06/27 05:58:25;;;;;;;10.30;5.30;;;;;;;25.14;100.00;100993.29;1750178;82;21022;-95
2022/06/27 06:00:52;;;;;;;6.65;5.72;;;;;;;25.17;100.00;100994.23;1750188;80;21053;-95
2022/06/27 06:03:20;;;;;;;7.85;5.75;;;;;;;25.23;100.00;100987.27;1750257;82;21033;-95
2022/06/27 06:05:47;;;;;;;11.28;5.12;;;;;;;25.30;100.00;100993.91;1749953;82;21026;-94
2022/06/27 06:08:14;;;;;;;5.70;5.17;;;;;;;25.34;100.00;100993.83;1750086;80;21842;-94
2022/06/27 06:10:41;;;;;;;7.90;5.35;;;;;;;25.39;100.00;100991.39;1750221;80;20970;-94
2022/06/27 06:13:09;;;;;;;6.03;5.03;;;;;;;25.43;100.00;100987.80;1750426;82;20982;-93
2022/06/27 06:15:38;;;;;;;7.20;5.03;;;;;;;25.47;100.00;100995.19;1750179;82;21449;-94
2022/06/27 06:18:05;;;;;;;6.33;5.37;;;;;;;25.51;100.00;100999.09;1750291;82;20990;-96
2022/06/27 06:20:33;;;;;;;5.55;5.03;;;;;;;25.56;100.00;101003.78;1750594;82;21138;-95
2022/06/27 06:23:01;;;;;;;8.25;4.90;;;;;;;25.61;100.00;101004.50;1750535;82;21081;-95
2022/06/27 06:25:29;;;;;;;8.08;4.92;;;;;;;25.62;100.00;101002.15;1749928;82;21006;-94
2022/06/27 06:28:02;;;;;;;7.35;4.80;;;;;;;25.66;100.00;101008.20;1750041;80;21053;-94
2022/06/27 06:30:31;;;;;;;9.50;4.33;;;;;;;25.75;100.00;100999.48;1750612;80;21053;-95
2022/06/27 06:33:05;;;;;;;;;;;;;;;25.87;100.00;101010.84;1748611;80;21099;-95
2022/06/27 06:35:32;;;;;;;5.30;4.80;;;;;;;25.95;100.00;101005.30;1748968;82;20475;-96
2022/06/27 06:38:01;;;;;;;7.03;4.35;;;;;;;26.01;100.00;101007.12;1750020;80;21009;-94
2022/06/27 06:40:31;;;;;;;7.58;4.40;;;;;;;26.08;100.00;101007.14;1750310;82;21088;-96
2022/06/27 06:43:00;;;;;;;6.10;4.70;;;;;;;26.13;100.00;101014.00;1749981;82;21492;-95
2022/06/27 06:45:38;;;;;;;8.40;4.37;;;;;;;26.25;100.00;101011.00;1745972;82;21262;-94
2022/06/27 06:48:08;;;;;;;8.48;4.58;;;;;;;26.40;100.00;101007.25;1746005;81;21042;-95
2022/06/27 06:50:35;;;;;;;4.72;4.20;;;;;;;26.49;100.00;101013.16;1746704;82;21054;-95
2022/06/27 06:53:04;;;;;;;4.87;4.30;;;;;;;26.54;99.50;101006.69;1730001;82;21011;-94
2022/06/27 06:55:32;;;;;;;8.13;4.10;;;;;;;26.57;99.57;101008.41;1730278;82;21081;-96
2022/06/27 06:57:59;;;;;;;7.20;4.53;;;;;;;26.60;99.02;101011.17;1749175;80;21177;-95
2022/06/27 07:00:27;;;;;;;8.25;4.40;;;;;;;26.65;97.50;101008.67;1755736;80;22006;-96
2022/06/27 07:02:55;;;;;;;5.78;4.35;;;;;;;26.71;98.47;101005.17;1752608;80;21038;-95
2022/06/27 07:05:24;;;;;;;7.55;4.80;;;;;;;26.80;95.70;101011.10;1753065;80;20966;-96
2022/06/27 07:07:52;;;;;;;5.60;4.53;;;;;;;26.86;97.74;101014.24;1681731;83;21495;-95
2022/06/27 07:10:20;;;;;;;6.45;4.25;;;;;;;26.92;97.84;101017.91;1723237;82;21152;-96
2022/06/27 07:12:48;;;;;;;5.85;4.00;;;;;;;26.98;95.01;101017.58;1682953;83;21492;-95
2022/06/27 07:15:15;;;;;;;6.58;4.70;;;;;;;27.03;87.69;101017.74;1723934;83;21122;-94
2022/06/27 07:17:46;;;;;;;4.83;4.42;;;;;;;27.06;91.31;101010.11;1680852;83;21012;-96
2022/06/27 07:20:18;;;;;;;4.20;3.75;;;;;;;27.11;93.83;101012.67;1723505;83;21051;-94
2022/06/27 07:22:48;;;;;;;4.62;3.58;;;;;;;27.18;91.62;101013.44;1711608;82;21157;-94
2022/06/27 07:25:15;;;;;;;5.28;4.10;;;;;;;27.25;92.00;101012.87;1700226;84;21596;-94
2022/06/27 07:27:43;;;;;;;4.62;3.65;;;;;;;27.31;85.69;101012.00;1700394;82;21529;-95
2022/06/27 07:30:13;;;;;;;19.75;4.50;;;;;;;27.37;84.78;101017.00;1700786;82;21054;-96
2022/06/27 07:32:42;;;;;;;7.78;4.03;;;;;;;27.42;84.54;101017.19;1699855;82;21686;-96
2022/06/27 07:35:13;;;;;;;5.95;4.10;;;;;;;27.43;83.37;101012.14;1700207;83;21067;-95
2022/06/27 07:37:49;;;;;;;5.25;4.08;;;;;;;27.52;82.58;101022.86;1700365;82;21098;-95
2022/06/27 07:40:20;;;;;;;5.65;4.12;;;;;;;27.61;74.94;101019.92;1690231;82;21451;-96
2022/06/27 07:42:51;;;;;;;4.92;3.55;;;;;;;27.65;78.58;101020.59;1719676;82;21013;-95
2022/06/27 07:45:19;;;;;;;6.33;4.25;;;;;;;27.70;78.12;101019.94;1710184;82;21054;-96
2022/06/27 07:47:47;;;;;;;6.15;3.90;;;;;;;27.77;75.14;101017.19;1751599;80;21780;-96
2022/06/27 07:53:11;;;;;;;5.05;4.00;;;;;;;27.86;80.98;101018.04;1751928;82;21061;-96
2022/06/27 07:55:49;;;;;;;7.08;4.10;;;;;;;27.94;74.17;101010.23;1747943;81;21037;-94
2022/06/27 07:58:19;;;;;;;4.55;3.60;;;;;;;28.01;74.55;101010.16;1698346;82;21089;-95
2022/06/27 08:00:49;;;;;;;6.20;3.10;;;;;;;28.07;75.69;101012.52;1738489;82;21899;-95
2022/06/27 08:06:15;;;;;;;5.05;3.60;;;;;;;28.27;75.89;101002.92;1739418;82;21429;-96
2022/06/27 08:08:47;;;;;;;5.05;3.65;;;;;;;28.39;73.80;100997.09;1737459;81;21069;-96
2022/06/27 08:11:18;;;;;;;4.17;3.77;;;;;;;28.51;77.72;101005.72;1745289;82;21069;-96
2022/06/27 08:13:47;;;;;;;5.42;3.40;;;;;;;28.58;71.08;101012.61;1726644;82;21371;-96
2022/06/27 08:16:18;;;;;;;4.92;3.47;;;;;;;28.62;75.06;101009.78;1750214;81;21119;-96
2022/06/27 08:18:48;;;;;;;3.83;3.52;;;;;;;28.69;68.64;101003.52;1744185;81;21011;-94
2022/06/27 08:21:23;;;;;;;4.40;3.77;;;;;;;28.72;68.99;101000.42;1724637;82;21045;-95
2022/06/27 08:23:51;;;;;;;6.12;3.52;;;;;;;28.75;69.92;100998.61;1741840;81;21032;-96
2022/06/27 08:26:18;;;;;;;6.12;4.00;;;;;;;28.79;69.34;100997.13;1784147;79;21273;-96
2022/06/27 08:28:47;;;;;;;5.58;3.70;;;;;;;28.85;67.33;100996.20;1768871;79;20934;-96
2022/06/27 08:31:15;;;;;;;3.72;3.27;;;;;;;28.89;62.72;100996.03;1745599;80;21003;-96
2022/06/27 08:33:44;;;;;;;4.47;3.52;;;;;;;28.90;64.02;100988.28;1708116;83;21516;-96
2022/06/27 08:36:14;;;;;;;3.85;3.50;;;;;;;28.91;65.97;100988.59;1684549;84;21032;-96
2022/06/27 08:38:50;;;;;;;3.87;3.52;;;;;;;28.95;66.97;100992.96;1706358;82;21140;-94
2022/06/27 08:41:21;;;;;;;7.15;3.55;;;;;;;29.00;63.41;100997.64;1680543;84;21038;-96
2022/06/27 08:43:51;;;;;;;4.58;3.92;;;;;;;29.01;61.10;101003.30;1725433;82;21191;-95
2022/06/27 08:46:20;;;;;;;6.78;4.83;;;;;;;29.01;59.33;100995.25;1730980;82;21444;-95
2022/06/27 08:48:49;;;;;;;4.58;3.80;;;;;;;29.03;61.37;100993.17;1710940;82;21004;-96
2022/06/27 08:51:17;;;;;;;5.20;3.42;;;;;;;29.07;63.10;100992.98;1728299;82;21149;-94
2022/06/27 08:53:45;;;;;;;3.42;3.10;;;;;;;29.14;63.33;100997.72;1730873;82;21034;-93
2022/06/27 08:56:13;;;;;;;6.60;3.25;;;;;;;29.22;64.51;101004.09;1730488;82;21011;-96
2022/06/27 08:58:46;;;;;;;4.53;3.47;;;;;;;29.30;63.67;101002.95;1731597;82;22975;-95
2022/06/27 09:01:19;;;;;;;4.12;3.20;;;;;;;29.38;64.35;100998.61;1740193;82;21164;-94
2022/06/27 09:04:03;;;;;;;5.05;3.50;;;;;;;29.43;60.73;101007.31;1742979;80;21176;-95
2022/06/27 09:06:35;;;;;;;3.80;3.50;;;;;;;29.43;57.56;100996.05;1743540;82;21316;-95
2022/06/27 09:09:08;;;;;;;5.00;3.52;;;;;;;29.41;57.79;101000.81;1740928;82;21580;-96
2022/06/27 09:11:41;;;;;;;5.15;3.75;;;;;;;29.39;59.13;101000.25;1713388;83;21508;-94
2022/06/27 09:14:39;;;;;;;4.83;3.42;;;;;;;29.42;58.96;100993.61;1730209;82;21101;-95
2022/06/27 09:17:13;;;;;;;6.47;3.75;;;;;;;29.47;60.12;100995.05;1741462;81;22035;-96
2022/06/27 09:19:55;;;;;;;6.15;3.50;;;;;;;29.56;58.97;100995.00;1733655;82;21052;-95
2022/06/27 09:22:28;;;;;;;5.37;3.15;;;;;;;29.61;56.26;100990.28;1733312;82;21038;-96
2022/06/27 09:25:09;;;;;;;4.83;3.37;;;;;;;29.63;56.48;100994.06;1717469;82;21007;-96
2022/06/27 09:27:42;;;;;;;;;;;;;;;29.64;59.69;100990.33;1729644;82;20994;-95
2022/06/27 09:30:22;;;;;;;5.58;3.75;;;;;;;29.68;56.98;101002.24;1729818;81;21250;-96
2022/06/27 09:32:59;;;;;;;3.87;3.35;;;;;;;29.68;53.90;100999.56;1737286;82;20965;-95
2022/06/27 09:35:36;;;;;;;6.05;3.42;;;;;;;29.65;54.67;101001.36;1732191;82;21001;-96
2022/06/27 09:38:09;;;;;;;4.67;3.85;;;;;;;29.65;53.83;100992.77;1734711;82;20991;-94
2022/06/27 09:40:40;;;;;;;3.95;3.60;;;;;;;29.77;56.67;100990.08;1742269;82;21081;-94
2022/06/27 09:43:09;;;;;;;6.08;3.77;;;;;;;29.92;54.61;100984.81;1741483;82;21155;-96
2022/06/27 09:45:37;;;;;;;8.28;4.30;;;;;;;30.02;54.49;100984.48;1743201;82;21477;-96
2022/06/27 09:48:06;;;;;;;4.65;3.75;;;;;;;30.10;54.92;100987.31;1739661;82;21009;-96
2022/06/27 09:50:39;;;;;;;4.72;3.60;;;;;;;30.18;50.40;100986.95;1743548;82;21521;-96
2022/06/27 09:53:07;;;;;;;5.95;3.35;;;;;;;30.24;52.76;100986.53;1727197;82;21042;-96
2022/06/27 09:55:35;;;;;;;5.45;4.05;;;;;;;30.36;51.22;100985.14;1706782;83;21490;-96
2022/06/27 09:58:03;;;;;;;3.85;3.47;;;;;;;30.44;50.96;100979.94;1718286;81;21030;-96
2022/06/27 10:00:33;;;;;;;5.45;3.55;;;;;;;30.49;52.90;100970.62;1736409;82;21034;-96
2022/06/27 10:03:01;;;;;;;7.85;4.80;;;;;;;30.56;49.65;100974.55;1736079;82;21286;-96
2022/06/27 10:05:29;;;;;;;8.83;3.30;;;;;;;30.58;50.37;100977.27;1741159;81;20999;-95
2022/06/27 10:08:05;;;;;;;5.35;3.42;;;;;;;30.62;48.97;100973.03;1729243;82;21251;-96
2022/06/27 10:11:10;;;;;;;4.60;3.83;;;;;;;30.64;46.70;100969.58;1735498;81;21046;-94
2022/06/27 10:13:46;;;;;;;4.78;4.03;;;;;;;30.63;47.56;100968.48;1717508;82;21043;-96
2022/06/27 10:16:14;;;;;;;5.55;3.72;;;;;;;30.60;46.83;100972.99;1722467;82;21000;-96
2022/06/27 10:19:04;;;;;;;8.40;4.00;;;;;;;30.60;46.22;100967.62;1724445;82;20987;-96
2022/06/27 10:21:41;;;;;;;8.88;4.50;;;;;;;30.58;46.29;100965.18;1743973;82;21391;-96
2022/06/27 10:24:26;;;;;;;8.98;3.72;;;;;;;30.59;48.82;100968.67;1740901;82;21416;-96
2022/06/27 10:26:59;;;;;;;8.25;3.30;;;;;;;30.64;50.70;100968.78;1743843;82;21006;-94
2022/06/27 10:29:37;;;;;;;7.50;3.80;;;;;;;30.71;46.11;100972.64;1743662;82;21087;-96
2022/06/27 10:32:07;;;;;;;4.65;3.45;;;;;;;30.80;46.54;100962.62;1727858;81;21036;-95
2022/06/27 10:34:46;;;;;;;5.30;3.33;;;;;;;30.93;45.41;100966.03;1726769;82;21153;-95
2022/06/27 10:37:30;;;;;;;4.92;3.77;;;;;;;31.00;45.54;100962.66;1718955;82;21086;-95
2022/06/27 10:40:23;;;;;;;4.60;3.45;;;;;;;31.07;47.52;100961.96;1733335;82;21008;-96
2022/06/27 10:42:56;;;;;;;10.50;4.10;;;;;;;31.18;49.09;100964.85;1731442;82;21054;-94
2022/06/27 10:45:25;;;;;;;7.33;3.95;;;;;;;31.31;46.45;100960.47;1734646;82;21032;-96
2022/06/27 10:47:58;;;;;;;5.47;3.90;;;;;;;31.21;45.82;100952.27;1727087;81;21140;-96
2022/06/27 10:50:28;;;;;;;5.85;4.47;;;;;;;31.10;45.53;100966.06;1723018;82;21059;-94
2022/06/27 10:53:22;;;;;;;7.03;3.90;;;;;;;30.98;49.93;100954.84;1744017;81;21610;-93
2022/06/27 10:55:49;;;;;;;5.05;3.60;;;;;;;30.91;48.16;100952.02;1715769;82;21009;-95
2022/06/27 10:58:24;;;;;;;7.72;4.03;;;;;;;30.80;45.71;100957.24;1745311;82;22134;-93
2022/06/27 11:00:51;;;;;;;7.25;3.55;;;;;;;30.83;45.00;100964.80;1740668;81;21588;-91
2022/06/27 11:03:25;;;;;;;4.75;4.05;;;;;;;30.88;44.77;100960.05;1748443;81;21027;-90
2022/06/27 11:06:04;;;;;;;5.22;4.25;;;;;;;30.95;46.55;100957.20;1732487;82;21040;-91
2022/06/27 11:08:37;;;;;;;6.33;4.05;;;;;;;31.10;47.23;100961.52;1719796;82;21040;-90
2022/06/27 11:11:06;;;;;;;5.12;4.30;;;;;;;31.17;47.66;100955.16;1722023;82;21068;-92
2022/06/27 11:13:56;;;;;;;6.30;4.17;;;;;;;31.21;49.02;100947.69;1711218;83;21157;-90
2022/06/27 11:16:24;;;;;;;5.58;3.37;;;;;;;31.31;47.21;100951.05;1737134;81;21521;-90
2022/06/27 11:19:01;;;;;;;4.60;3.70;;;;;;;31.35;42.07;100944.14;1723560;82;21099;-90
2022/06/27 11:21:36;;;;;;;5.45;3.85;;;;;;;31.35;42.70;100944.66;1726654;82;21040;-89
2022/06/27 11:24:09;;;;;;;4.83;4.33;;;;;;;31.41;44.85;100942.31;1730468;82;21036;-91
2022/06/27 11:26:40;;;;;;;7.80;3.67;;;;;;;31.50;46.52;100941.38;1719886;82;21481;-90
2022/06/27 11:32:05;;;;;;;9.70;4.25;;;;;;;31.63;41.04;100949.91;1747495;81;21000;-90
2022/06/27 11:34:36;;;;;;;8.13;5.57;;;;;;;31.57;39.67;100949.53;1762385;80;21046;-91
2022/06/27 11:37:19;;;;;;;35.30;24.25;;;;;;;31.51;40.07;100932.25;1725580;82;20989;-90
2022/06/27 11:40:03;;;;;;;33.70;21.55;;;;;;;31.52;41.43;100939.26;1746543;81;21139;-93
2022/06/27 11:42:34;;;;;;;9.85;7.40;;;;;;;31.56;43.06;100944.41;1728593;81;21060;-93
2022/06/27 11:45:12;;;;;;;8.25;5.05;;;;;;;31.56;40.29;100941.72;1729454;81;21059;-93
2022/06/27 11:47:46;;;;;;;3.80;3.47;;;;;;;31.55;40.77;100937.40;1750041;81;21521;-92
2022/06/27 11:50:19;;;;;;;6.22;4.00;;;;;;;31.55;43.83;100932.02;1734763;82;21651;-92